KCCA/CCA METAR and TAF weather

Enter ICAO airport designator
Station Type Date Time Source
KCCA METAR 2018/04/27 00:55 UTC NOAA

KCCA 270055Z AUTO 00000KT 7SM FEW065 17/10 A2994 RMK AO2


Station Type Date Time Source
KCCA Decoded METAR 2018/04/27 00:55 UTC NOAA

Station name not available
Apr 26, 2018 - 08:55 PM EDT / 2018.04.27 0055 UTC
Wind: Calm:0
Visibility: 7 mile(s):0
Sky conditions: mostly clear
Temperature: 62 F (17 C)
Dew Point: 50 F (10 C)
Relative Humidity: 63%
Pressure (altimeter): 29.94 in. Hg (1013 hPa)
ob: KCCA 270055Z AUTO 00000KT 7SM FEW065 17/10 A2994 RMK AO2
cycle: 1

Station Type Date Time Source
KCCA TAF UTC NOAA

Error!


Example: see airport list